Time;durP1;ratioP1;P1;durP2;ratioP2;P2;SDS_P1;SDS_P2;PMS_P1;PMS_P2;Temp;Humidity;BMP_temperature;BMP_pressure;BME280_temperature;BME280_humidity;BME280_pressure;Samples;Min_cycle;Max_cycle;Signal;HPM_P1;HPM_P2
2022/09/26 00:01:21;;;;;;;2.42;1.13;;;11.30;99.90;;;;;;5029861;28;20049;-37
2022/09/26 00:03:52;;;;;;;4.68;1.50;;;11.30;99.90;;;;;;5030652;28;20073;-37
2022/09/26 00:06:18;;;;;;;4.63;1.30;;;11.30;99.90;;;;;;5029909;28;20048;-37
2022/09/26 00:08:45;;;;;;;3.70;1.10;;;11.30;99.90;;;;;;5035100;28;20044;-37
2022/09/26 00:11:14;;;;;;;4.45;1.20;;;11.30;99.90;;;;;;5028664;28;20041;-37
2022/09/26 00:13:42;;;;;;;4.20;1.23;;;11.30;99.90;;;;;;5029690;28;20041;-36
2022/09/26 00:16:10;;;;;;;3.67;1.15;;;11.30;99.90;;;;;;5042414;28;20033;-37
2022/09/26 00:18:36;;;;;;;7.10;1.50;;;11.30;99.90;;;;;;5036603;28;20108;-36
2022/09/26 00:21:04;;;;;;;3.22;1.00;;;11.30;99.90;;;;;;5022797;28;20041;-37
2022/09/26 00:23:30;;;;;;;5.88;1.88;;;11.30;99.90;;;;;;5029258;28;20112;-36
2022/09/26 00:25:57;;;;;;;8.93;2.05;;;11.30;99.90;;;;;;5028283;28;20038;-35
2022/09/26 00:28:23;;;;;;;2.20;0.90;;;11.30;99.90;;;;;;5040395;28;20056;-37
2022/09/26 00:30:49;;;;;;;5.47;1.35;;;11.30;99.90;;;;;;5033980;28;20037;-37
2022/09/26 00:33:15;;;;;;;2.28;0.73;;;11.30;99.90;;;;;;5030665;28;20054;-36
2022/09/26 00:35:50;;;;;;;2.42;1.00;;;11.30;99.90;;;;;;5035102;28;20033;-36
2022/09/26 00:38:16;;;;;;;4.90;0.98;;;11.30;99.90;;;;;;5029459;28;20394;-36
2022/09/26 00:40:41;;;;;;;3.78;0.80;;;11.30;99.90;;;;;;5030222;28;20030;-36
2022/09/26 00:43:27;;;;;;;2.63;0.90;;;11.40;99.90;;;;;;5032510;28;20053;-36
2022/09/26 00:45:56;;;;;;;2.95;0.90;;;11.40;99.90;;;;;;5032292;28;20053;-36
2022/09/26 00:48:22;;;;;;;2.78;0.65;;;11.40;99.90;;;;;;5035734;28;20072;-36
2022/09/26 00:50:48;;;;;;;5.38;1.30;;;11.50;99.90;;;;;;5034986;28;20045;-37
2022/09/26 00:53:18;;;;;;;5.20;1.02;;;11.40;99.90;;;;;;5033037;28;20045;-37
2022/09/26 00:56:08;;;;;;;4.03;1.10;;;11.50;99.90;;;;;;5037816;28;20037;-36
2022/09/26 00:58:39;;;;;;;4.93;1.10;;;11.40;99.90;;;;;;5035086;28;20040;-36
2022/09/26 01:01:05;;;;;;;3.28;1.42;;;11.50;99.90;;;;;;5031762;28;20048;-36
2022/09/26 01:03:31;;;;;;;3.80;1.20;;;11.40;99.90;;;;;;5037411;28;20046;-35
2022/09/26 01:05:59;;;;;;;5.55;1.00;;;11.40;99.90;;;;;;5035440;28;20383;-37
2022/09/26 01:08:31;;;;;;;2.67;1.15;;;11.40;99.90;;;;;;5039655;28;20136;-36
2022/09/26 01:10:58;;;;;;;4.47;1.30;;;11.50;99.90;;;;;;5033651;28;20083;-36
2022/09/26 01:13:25;;;;;;;2.53;1.00;;;11.40;99.90;;;;;;5040388;28;20049;-36
2022/09/26 01:15:51;;;;;;;3.22;0.90;;;11.50;99.90;;;;;;5038870;28;20044;-36
2022/09/26 01:18:18;;;;;;;2.95;0.80;;;11.50;99.90;;;;;;5034693;28;20037;-37
2022/09/26 01:21:08;;;;;;;5.85;1.10;;;11.40;99.90;;;;;;5038230;28;20465;-36
2022/09/26 01:23:34;;;;;;;5.80;1.65;;;11.50;99.90;;;;;;5036668;28;20047;-36
2022/09/26 01:26:21;;;;;;;2.63;1.10;;;11.50;99.90;;;;;;5034847;28;20037;-36
2022/09/26 01:28:55;;;;;;;6.35;1.20;;;11.50;99.90;;;;;;5035273;28;20041;-37
2022/09/26 01:31:31;;;;;;;3.20;1.10;;;11.50;99.90;;;;;;5032475;28;20045;-36
2022/09/26 01:34:08;;;;;;;4.18;0.93;;;11.50;99.90;;;;;;5043956;28;20214;-37
2022/09/26 01:36:52;;;;;;;2.55;0.95;;;11.50;99.90;;;;;;5033044;28;20052;-36
2022/09/26 01:40:13;;;;;;;4.07;1.15;;;11.50;99.90;;;;;;5030957;28;20047;-36
2022/09/26 01:42:53;;;;;;;4.13;1.20;;;11.50;99.90;;;;;;4971685;28;20089;-36
2022/09/26 01:45:42;;;;;;;9.70;1.35;;;11.50;99.90;;;;;;5005392;28;20136;-37
2022/09/26 01:48:20;;;;;;;3.38;1.05;;;11.50;99.90;;;;;;5014967;28;20499;-37
2022/09/26 01:50:58;;;;;;;4.80;1.52;;;11.50;99.90;;;;;;5013271;28;20041;-36
2022/09/26 01:53:42;;;;;;;2.80;1.13;;;11.60;99.90;;;;;;5013845;28;20037;-37
2022/09/26 01:56:16;;;;;;;3.78;1.00;;;11.60;99.90;;;;;;5008621;28;20402;-37
2022/09/26 01:58:59;;;;;;;4.25;1.40;;;11.60;99.90;;;;;;5013561;28;20513;-37
2022/09/26 02:01:26;;;;;;;;;;;11.60;99.90;;;;;;5019841;28;20567;-35
2022/09/26 02:03:57;;;;;;;3.88;1.67;;;11.60;99.90;;;;;;5012043;28;20374;-35
2022/09/26 02:06:47;;;;;;;4.50;1.67;;;11.60;99.90;;;;;;5010599;28;20577;-36
2022/09/26 02:09:37;;;;;;;4.82;1.60;;;11.60;99.90;;;;;;5007334;28;20120;-36
2022/09/26 02:12:06;;;;;;;5.10;1.83;;;11.60;99.90;;;;;;5008246;28;20594;-36
2022/09/26 02:14:35;;;;;;;6.03;1.85;;;11.60;99.90;;;;;;5013304;28;20509;-37
2022/09/26 02:17:08;;;;;;;5.25;1.60;;;11.60;99.90;;;;;;5013630;28;20099;-36
2022/09/26 02:19:53;;;;;;;4.45;1.73;;;11.60;99.90;;;;;;5015918;28;20075;-37
2022/09/26 02:22:19;;;;;;;4.68;1.65;;;11.60;99.90;;;;;;5011941;28;20539;-37
2022/09/26 02:24:45;;;;;;;5.38;2.05;;;11.60;99.90;;;;;;5015802;28;20081;-37
2022/09/26 02:27:11;;;;;;;4.53;2.00;;;11.60;99.90;;;;;;5013991;28;20061;-36
2022/09/26 02:29:36;;;;;;;4.57;1.90;;;11.60;99.90;;;;;;5005981;28;20791;-37
2022/09/26 02:32:14;;;;;;;5.57;2.58;;;11.60;99.90;;;;;;5025504;28;20088;-37
2022/09/26 02:34:42;;;;;;;3.38;1.50;;;11.60;99.90;;;;;;5012288;28;20034;-38
2022/09/26 02:37:08;;;;;;;4.82;1.80;;;11.60;99.90;;;;;;5016045;28;20542;-37
2022/09/26 02:39:35;;;;;;;6.03;2.30;;;11.60;99.90;;;;;;5014824;28;20402;-37
2022/09/26 02:42:42;;;;;;;4.63;2.20;;;11.50;99.90;;;;;;5022730;28;20111;-37
2022/09/26 02:45:32;;;;;;;4.95;1.90;;;11.50;99.90;;;;;;5008910;28;20056;-36
2022/09/26 02:48:27;;;;;;;3.97;2.33;;;11.50;99.90;;;;;;5030741;28;20512;-36
2022/09/26 02:50:59;;;;;;;4.35;1.80;;;11.40;99.90;;;;;;5033917;28;20040;-36
2022/09/26 02:53:54;;;;;;;5.75;2.40;;;11.40;99.90;;;;;;5027322;28;20045;-38
2022/09/26 02:56:51;;;;;;;4.68;1.90;;;11.40;99.90;;;;;;4985038;28;20041;-37
2022/09/26 02:59:48;;;;;;;5.15;2.05;;;11.40;99.90;;;;;;5010111;28;20254;-37
2022/09/26 03:02:19;;;;;;;4.78;1.75;;;11.30;99.90;;;;;;5033702;28;20122;-37
2022/09/26 03:04:53;;;;;;;5.03;2.13;;;11.30;99.90;;;;;;5032245;28;20049;-36
2022/09/26 03:07:43;;;;;;;5.82;2.17;;;11.30;99.90;;;;;;5029852;28;20052;-36
2022/09/26 03:10:11;;;;;;;4.85;2.22;;;11.30;99.90;;;;;;5026611;28;20537;-38
2022/09/26 03:12:38;;;;;;;6.40;2.10;;;11.20;99.90;;;;;;5028894;28;20045;-37
2022/09/26 03:15:06;;;;;;;4.80;1.88;;;11.30;99.90;;;;;;5025027;28;20037;-37
2022/09/26 03:17:34;;;;;;;3.30;2.05;;;11.20;99.90;;;;;;5029506;28;20118;-37
2022/09/26 03:20:17;;;;;;;5.47;1.92;;;11.20;99.90;;;;;;5028882;28;20126;-37
2022/09/26 03:22:43;;;;;;;6.68;2.13;;;11.20;99.90;;;;;;5034355;28;20486;-37
2022/09/26 03:25:15;;;;;;;4.80;2.90;;;11.20;99.90;;;;;;5031743;28;20098;-37
2022/09/26 03:27:45;;;;;;;4.88;1.92;;;11.20;99.90;;;;;;5029742;28;20037;-37
2022/09/26 03:30:12;;;;;;;5.80;1.70;;;11.20;99.90;;;;;;5036935;28;20129;-37
2022/09/26 03:32:39;;;;;;;3.97;2.17;;;11.20;99.90;;;;;;5034544;28;20052;-36
2022/09/26 03:35:06;;;;;;;5.38;2.17;;;11.20;99.90;;;;;;5034791;28;20092;-36
2022/09/26 03:37:36;;;;;;;5.93;2.42;;;11.20;99.90;;;;;;5012255;28;20486;-37
2022/09/26 03:40:08;;;;;;;4.50;2.40;;;11.10;99.90;;;;;;5033681;28;20482;-36
2022/09/26 03:42:34;;;;;;;4.45;2.13;;;11.20;99.90;;;;;;5030058;28;20146;-36
2022/09/26 03:45:07;;;;;;;5.70;2.20;;;11.20;99.90;;;;;;5040543;28;20465;-37
2022/09/26 03:47:33;;;;;;;4.50;2.10;;;11.20;99.90;;;;;;5034868;28;20045;-37
2022/09/26 03:50:00;;;;;;;4.45;2.28;;;11.20;99.90;;;;;;5029780;28;20102;-37
2022/09/26 03:52:26;;;;;;;4.28;2.40;;;11.20;99.90;;;;;;5033754;28;20045;-37
2022/09/26 03:54:52;;;;;;;4.13;2.25;;;11.20;99.90;;;;;;5033606;28;20036;-38
2022/09/26 03:57:19;;;;;;;5.38;1.98;;;11.20;99.90;;;;;;5034325;28;20029;-37
2022/09/26 03:59:45;;;;;;;7.90;2.13;;;11.20;99.90;;;;;;5030053;28;20044;-36
2022/09/26 04:02:11;;;;;;;3.65;1.98;;;11.20;99.90;;;;;;5033655;28;20041;-41
2022/09/26 04:04:37;;;;;;;7.60;2.53;;;11.20;99.90;;;;;;5030744;28;20041;-37
2022/09/26 04:07:03;;;;;;;6.22;2.45;;;11.20;99.90;;;;;;5034836;28;20069;-37
2022/09/26 04:09:29;;;;;;;4.95;2.13;;;11.20;99.90;;;;;;5027350;28;20029;-37
2022/09/26 04:11:55;;;;;;;5.35;2.30;;;11.20;99.90;;;;;;5033114;28;20056;-36
2022/09/26 04:14:21;;;;;;;6.20;3.05;;;11.10;99.90;;;;;;5035287;28;20041;-37
2022/09/26 04:16:47;;;;;;;4.78;2.00;;;11.10;99.90;;;;;;5040835;28;20037;-38
2022/09/26 04:19:13;;;;;;;5.95;1.85;;;11.10;99.90;;;;;;5035434;28;20041;-37
2022/09/26 04:21:40;;;;;;;8.35;2.20;;;11.10;99.90;;;;;;5030385;28;20107;-36
2022/09/26 04:24:08;;;;;;;6.20;2.05;;;11.10;99.90;;;;;;5029970;28;20072;-50
2022/09/26 04:26:34;;;;;;;6.65;2.38;;;11.10;99.90;;;;;;5034912;28;20103;-36
2022/09/26 04:29:00;;;;;;;4.78;2.03;;;11.10;99.90;;;;;;5031706;28;20502;-37
2022/09/26 04:31:26;;;;;;;4.18;2.30;;;11.10;99.90;;;;;;5026222;28;21565;-37
2022/09/26 04:33:55;;;;;;;3.35;2.25;;;11.10;99.90;;;;;;5031416;28;20072;-39
2022/09/26 04:36:22;;;;;;;6.55;2.40;;;11.10;99.90;;;;;;5034563;28;20469;-39
2022/09/26 04:38:48;;;;;;;4.78;2.13;;;11.10;99.90;;;;;;5031544;28;20045;-40
2022/09/26 04:41:16;;;;;;;4.60;2.33;;;11.10;99.90;;;;;;5034485;28;20532;-38
2022/09/26 04:43:42;;;;;;;9.85;2.53;;;11.10;99.90;;;;;;5033919;28;20045;-38
2022/09/26 04:46:11;;;;;;;5.85;3.20;;;11.10;99.90;;;;;;5030681;28;20044;-38
2022/09/26 04:48:37;;;;;;;6.55;2.85;;;11.10;99.90;;;;;;5030153;28;20398;-40
2022/09/26 04:51:07;;;;;;;5.95;2.63;;;11.00;99.90;;;;;;5036242;28;20037;-39
2022/09/26 04:53:33;;;;;;;6.72;2.47;;;11.10;99.90;;;;;;5038286;28;20481;-39
2022/09/26 04:55:59;;;;;;;4.05;2.28;;;11.10;99.90;;;;;;5034206;28;20045;-39
2022/09/26 04:58:25;;;;;;;6.22;2.58;;;11.10;99.90;;;;;;5031314;28;20030;-40
2022/09/26 05:00:51;;;;;;;5.07;2.55;;;11.10;99.90;;;;;;5027814;28;20036;-38
2022/09/26 05:03:17;;;;;;;6.10;2.60;;;11.00;99.90;;;;;;5034109;28;20041;-40
2022/09/26 05:05:46;;;;;;;5.10;2.10;;;11.00;99.90;;;;;;5030338;28;20037;-40
2022/09/26 05:08:13;;;;;;;7.65;2.45;;;11.00;99.90;;;;;;5023708;28;20096;-41
2022/09/26 05:10:40;;;;;;;5.70;2.55;;;11.00;99.90;;;;;;5031360;28;20045;-39
2022/09/26 05:13:06;;;;;;;6.28;2.47;;;11.00;99.90;;;;;;5033987;28;20573;-40
2022/09/26 05:15:38;;;;;;;8.55;2.90;;;10.90;99.90;;;;;;5035769;28;20460;-41
2022/09/26 05:18:06;;;;;;;5.45;2.95;;;10.90;99.90;;;;;;5029099;28;20063;-39
2022/09/26 05:20:33;;;;;;;6.20;3.25;;;10.90;99.90;;;;;;5031161;28;20042;-45
2022/09/26 05:23:00;;;;;;;5.55;2.67;;;10.90;99.90;;;;;;5036817;28;20049;-39
2022/09/26 05:28:12;;;;;;;5.85;2.85;;;10.90;99.90;;;;;;5026795;28;20395;-38
2022/09/26 05:30:39;;;;;;;6.13;3.30;;;10.90;99.90;;;;;;5027245;28;20079;-39
2022/09/26 05:33:06;;;;;;;5.13;2.25;;;10.80;99.90;;;;;;5029790;28;20045;-39
2022/09/26 05:35:34;;;;;;;5.00;2.47;;;10.90;99.90;;;;;;5031693;28;20045;-38
2022/09/26 05:38:04;;;;;;;6.78;2.58;;;10.80;99.90;;;;;;5033030;28;20413;-38
2022/09/26 05:43:15;;;;;;;5.40;2.80;;;10.80;99.90;;;;;;5032853;28;20191;-40
2022/09/26 05:45:41;;;;;;;4.63;2.35;;;10.80;99.90;;;;;;5033638;28;20124;-38
2022/09/26 05:48:08;;;;;;;6.63;3.10;;;10.80;99.90;;;;;;5030611;28;20037;-42
2022/09/26 05:50:34;;;;;;;5.05;2.00;;;10.80;99.90;;;;;;5021969;28;20045;-37
2022/09/26 05:53:00;;;;;;;7.47;2.45;;;10.80;99.90;;;;;;5027196;28;20229;-37
2022/09/26 05:55:27;;;;;;;6.35;2.58;;;10.70;99.90;;;;;;5032064;28;20045;-38
2022/09/26 05:57:57;;;;;;;6.13;2.38;;;10.70;99.90;;;;;;5026063;28;20045;-38
2022/09/26 06:00:23;;;;;;;8.88;2.28;;;10.70;99.90;;;;;;5012602;28;20041;-39
2022/09/26 06:02:56;;;;;;;4.28;2.00;;;10.70;99.90;;;;;;5009881;28;20117;-39
2022/09/26 06:05:24;;;;;;;5.47;2.50;;;10.70;99.90;;;;;;5015144;28;20049;-37
2022/09/26 06:07:50;;;;;;;7.57;2.67;;;10.70;99.90;;;;;;5028600;28;20044;-39
2022/09/26 06:10:17;;;;;;;6.53;2.10;;;10.70;99.90;;;;;;5028905;28;20802;-39
2022/09/26 06:12:42;;;;;;;5.22;2.15;;;10.70;99.90;;;;;;5033707;28;20041;-38
2022/09/26 06:15:08;;;;;;;3.67;1.98;;;10.70;99.90;;;;;;5032717;28;20055;-39
2022/09/26 06:17:35;;;;;;;2.40;1.38;;;10.70;99.90;;;;;;5028720;28;20040;-39
2022/09/26 06:20:01;;;;;;;5.13;1.90;;;10.70;99.90;;;;;;5031243;28;20581;-38
2022/09/26 06:22:27;;;;;;;8.18;1.85;;;10.80;99.90;;;;;;5027854;28;20112;-39
2022/09/26 06:24:54;;;;;;;5.78;1.80;;;10.70;99.90;;;;;;5017669;28;20099;-39
2022/09/26 06:27:21;;;;;;;5.47;1.85;;;10.80;99.90;;;;;;5039543;28;20064;-39
2022/09/26 06:29:47;;;;;;;2.67;1.13;;;10.80;99.90;;;;;;5035141;28;20077;-39
2022/09/26 06:32:13;;;;;;;5.88;2.00;;;10.80;99.90;;;;;;5032316;28;20037;-39
2022/09/26 06:34:39;;;;;;;3.63;1.63;;;10.80;99.90;;;;;;5007805;28;20041;-38
2022/09/26 06:37:05;;;;;;;3.10;1.52;;;10.80;99.90;;;;;;5024538;28;20041;-39
2022/09/26 06:39:34;;;;;;;6.07;1.63;;;10.80;99.90;;;;;;5017475;28;20033;-40
2022/09/26 06:42:01;;;;;;;3.70;1.30;;;10.80;99.90;;;;;;5040415;28;20126;-40
2022/09/26 06:44:27;;;;;;;3.00;1.10;;;10.90;99.90;;;;;;5028248;28;20084;-38
2022/09/26 06:46:53;;;;;;;4.53;1.35;;;10.80;99.90;;;;;;5030887;28;20053;-38
2022/09/26 06:49:18;;;;;;;4.90;1.40;;;10.80;99.90;;;;;;5034943;28;20075;-38
2022/09/26 06:51:47;;;;;;;5.63;1.33;;;10.80;99.90;;;;;;5031188;28;20108;-39
2022/09/26 06:54:13;;;;;;;2.97;1.70;;;10.80;99.90;;;;;;5035929;28;20545;-39
2022/09/26 06:56:39;;;;;;;3.45;1.30;;;10.80;99.90;;;;;;5031789;28;20056;-41
2022/09/26 06:59:05;;;;;;;2.30;1.30;;;10.80;99.90;;;;;;5028928;28;20040;-38
2022/09/26 07:01:31;;;;;;;3.92;1.10;;;10.80;99.90;;;;;;5013272;28;20060;-39
2022/09/26 07:03:57;;;;;;;5.10;1.67;;;10.80;99.90;;;;;;5024804;28;20086;-39
2022/09/26 07:06:23;;;;;;;3.95;1.50;;;10.80;99.90;;;;;;5027602;28;20041;-38
2022/09/26 07:08:51;;;;;;;3.70;1.50;;;10.80;99.90;;;;;;5035312;28;20535;-39
2022/09/26 07:11:17;;;;;;;4.47;1.48;;;10.70;99.90;;;;;;5021903;28;20518;-38
2022/09/26 07:13:44;;;;;;;3.85;1.50;;;10.70;99.90;;;;;;5028996;28;20560;-38
2022/09/26 07:16:11;;;;;;;3.17;1.17;;;10.70;99.90;;;;;;5024983;28;20501;-37
2022/09/26 07:18:38;;;;;;;6.18;1.50;;;10.70;99.90;;;;;;5035008;28;20037;-40
2022/09/26 07:21:07;;;;;;;5.03;0.70;;;10.70;99.90;;;;;;5035042;28;20075;-40
2022/09/26 07:23:33;;;;;;;4.10;1.50;;;10.70;99.90;;;;;;5028769;28;20077;-39
2022/09/26 07:25:59;;;;;;;3.95;1.98;;;10.80;99.90;;;;;;5029419;28;20079;-38
2022/09/26 07:28:26;;;;;;;2.28;1.00;;;10.80;99.90;;;;;;5028763;28;20033;-38
2022/09/26 07:30:56;;;;;;;4.88;1.20;;;10.80;99.90;;;;;;5035101;28;20068;-38
2022/09/26 07:33:22;;;;;;;5.72;1.50;;;10.90;99.90;;;;;;5034318;28;20041;-39
2022/09/26 07:35:48;;;;;;;4.90;1.35;;;10.90;99.90;;;;;;5037405;28;20504;-38
2022/09/26 07:38:13;;;;;;;5.43;1.50;;;10.90;99.90;;;;;;5029733;28;20037;-38
2022/09/26 07:40:42;;;;;;;4.90;1.00;;;11.00;99.90;;;;;;5037853;28;20515;-40
2022/09/26 07:43:09;;;;;;;2.88;1.00;;;11.10;99.90;;;;;;5041793;28;20064;-40
2022/09/26 07:51:10;;;;;;;3.05;1.55;;;11.20;99.90;;;;;;5030475;28;20045;-38
2022/09/26 07:53:37;;;;;;;4.95;1.20;;;11.30;99.90;;;;;;5033768;28;20046;-40
2022/09/26 07:56:06;;;;;;;5.32;1.38;;;11.30;99.90;;;;;;5029805;28;20116;-40
2022/09/26 07:58:32;;;;;;;2.75;1.17;;;11.40;99.90;;;;;;5029054;28;20063;-40
2022/09/26 08:00:58;;;;;;;3.35;1.23;;;11.40;99.90;;;;;;5027800;28;20068;-38
2022/09/26 08:03:27;;;;;;;3.80;0.98;;;11.50;99.90;;;;;;5024011;28;20041;-37
2022/09/26 08:05:58;;;;;;;4.60;1.10;;;11.50;99.90;;;;;;5031373;28;20057;-38
2022/09/26 08:08:24;;;;;;;3.05;0.90;;;11.50;99.90;;;;;;5007629;28;20547;-41
2022/09/26 08:10:50;;;;;;;2.63;1.20;;;11.50;99.90;;;;;;5028402;28;20506;-37
2022/09/26 08:13:16;;;;;;;5.35;1.30;;;11.60;99.90;;;;;;5026876;28;20076;-40
2022/09/26 08:15:41;;;;;;;1.63;0.77;;;11.60;99.90;;;;;;5029778;28;20033;-40
2022/09/26 08:18:07;;;;;;;3.50;1.52;;;11.60;99.90;;;;;;5009389;28;20042;-38
2022/09/26 08:20:34;;;;;;;3.33;1.63;;;11.60;99.90;;;;;;5027274;28;20040;-37
2022/09/26 08:23:00;;;;;;;5.35;1.00;;;11.60;99.90;;;;;;5038716;28;20490;-37
2022/09/26 08:25:25;;;;;;;3.40;1.08;;;11.70;99.90;;;;;;5029101;28;20048;-39
2022/09/26 08:27:52;;;;;;;4.13;1.15;;;11.70;99.90;;;;;;5032570;28;20441;-39
2022/09/26 08:30:18;;;;;;;4.03;1.27;;;11.70;99.90;;;;;;5029892;28;20043;-41
2022/09/26 08:32:52;;;;;;;4.60;1.98;;;11.70;99.90;;;;;;5029270;28;20072;-37
2022/09/26 08:35:19;;;;;;;3.47;1.13;;;11.70;99.90;;;;;;5032493;28;20037;-38
2022/09/26 08:37:45;;;;;;;5.50;1.38;;;11.70;99.90;;;;;;5028340;28;20025;-38
2022/09/26 08:40:11;;;;;;;2.88;1.00;;;11.70;99.90;;;;;;5029840;28;20042;-39
2022/09/26 08:42:54;;;;;;;3.50;1.45;;;11.70;99.90;;;;;;5031471;28;20064;-38
2022/09/26 08:48:13;;;;;;;4.65;1.02;;;11.80;99.90;;;;;;5029682;28;19921;-38
2022/09/26 08:50:52;;;;;;;4.80;1.23;;;11.80;99.90;;;;;;5031250;28;20072;-38
2022/09/26 08:53:23;;;;;;;3.80;1.38;;;11.80;99.90;;;;;;5034876;28;20045;-38
2022/09/26 08:55:52;;;;;;;4.57;1.33;;;11.80;99.90;;;;;;5029910;28;20442;-38
2022/09/26 08:58:21;;;;;;;4.72;1.30;;;11.90;99.90;;;;;;5029299;28;20411;-39
2022/09/26 09:00:53;;;;;;;3.00;1.10;;;11.90;99.90;;;;;;5032825;28;20525;-38
2022/09/26 09:03:22;;;;;;;4.68;1.33;;;11.90;99.90;;;;;;5029589;28;20073;-38
2022/09/26 09:05:53;;;;;;;3.53;1.13;;;11.90;99.90;;;;;;5029567;28;20092;-38
2022/09/26 09:08:23;;;;;;;4.53;1.23;;;12.00;99.90;;;;;;5030841;28;20760;-39
2022/09/26 09:11:15;;;;;;;3.38;1.33;;;12.00;99.90;;;;;;5036037;28;20037;-41
2022/09/26 09:14:04;;;;;;;5.13;1.70;;;12.00;99.90;;;;;;5037717;28;20041;-39
2022/09/26 09:16:55;;;;;;;4.13;1.20;;;12.00;99.90;;;;;;5032850;28;20461;-39
2022/09/26 09:19:30;;;;;;;4.78;1.58;;;12.10;99.90;;;;;;5037046;28;20049;-39
2022/09/26 09:22:24;;;;;;;4.50;1.20;;;12.00;99.90;;;;;;5036006;28;20052;-37
2022/09/26 09:25:00;;;;;;;3.67;1.13;;;12.00;99.90;;;;;;5034245;28;20171;-38
2022/09/26 09:27:41;;;;;;;5.32;1.27;;;12.00;99.90;;;;;;5042196;28;20503;-39
2022/09/26 09:30:19;;;;;;;3.72;1.70;;;12.00;99.90;;;;;;5028873;28;20367;-38
2022/09/26 09:32:59;;;;;;;4.20;1.60;;;12.10;99.90;;;;;;5032271;28;20083;-39
2022/09/26 09:35:48;;;;;;;2.42;1.02;;;12.10;99.90;;;;;;5030566;28;20482;-41
2022/09/26 09:38:16;;;;;;;3.35;1.35;;;12.10;99.90;;;;;;5020423;28;20049;-38
2022/09/26 09:40:51;;;;;;;7.65;1.80;;;12.10;99.90;;;;;;5025832;28;20494;-38
2022/09/26 09:43:38;;;;;;;2.97;1.20;;;12.10;99.90;;;;;;5031360;28;20052;-40
2022/09/26 09:46:16;;;;;;;5.35;1.10;;;12.10;99.90;;;;;;5030905;28;20491;-39
2022/09/26 09:48:45;;;;;;;5.28;1.45;;;12.10;99.90;;;;;;5034521;28;20077;-39
2022/09/26 09:51:30;;;;;;;4.45;1.58;;;12.10;99.90;;;;;;5038817;28;20548;-39
2022/09/26 09:54:33;;;;;;;3.28;1.42;;;12.20;99.90;;;;;;5011564;28;20163;-38
2022/09/26 09:57:33;;;;;;;3.28;1.27;;;12.20;99.90;;;;;;5038337;28;20037;-37
2022/09/26 10:00:10;;;;;;;3.65;1.30;;;12.20;99.90;;;;;;5031119;28;20409;-38
2022/09/26 10:03:00;;;;;;;4.50;1.60;;;12.10;99.90;;;;;;5033067;28;20033;-40
2022/09/26 10:05:44;;;;;;;5.07;1.40;;;12.10;99.90;;;;;;5026322;28;20050;-38
2022/09/26 10:08:19;;;;;;;5.50;1.70;;;12.20;99.90;;;;;;5029334;28;20056;-39
2022/09/26 10:11:11;;;;;;;6.57;2.60;;;12.20;99.90;;;;;;5026557;28;20112;-40
2022/09/26 10:13:42;;;;;;;4.50;1.75;;;12.20;99.90;;;;;;5027034;28;20037;-40
2022/09/26 10:16:10;;;;;;;4.05;1.48;;;12.10;99.90;;;;;;5034021;28;20506;-39
2022/09/26 10:18:55;;;;;;;2.85;1.60;;;12.10;99.90;;;;;;5034886;28;20034;-41
2022/09/26 10:21:31;;;;;;;3.85;1.20;;;12.10;99.90;;;;;;5026825;28;20037;-39
2022/09/26 10:23:58;;;;;;;5.25;1.40;;;12.00;99.90;;;;;;5028948;28;20064;-40
2022/09/26 10:26:33;;;;;;;6.53;1.52;;;12.10;99.90;;;;;;5026671;28;20085;-39
2022/09/26 10:29:20;;;;;;;5.63;1.45;;;12.10;99.90;;;;;;5007762;28;20072;-39
2022/09/26 10:31:54;;;;;;;5.88;1.30;;;12.10;99.90;;;;;;5032095;28;20077;-40
2022/09/26 10:34:27;;;;;;;6.25;1.38;;;12.00;99.90;;;;;;5031008;28;20063;-38
2022/09/26 10:36:54;;;;;;;5.93;1.75;;;12.10;99.90;;;;;;5028386;28;20140;-37
2022/09/26 10:42:14;;;;;;;4.38;1.60;;;12.00;99.90;;;;;;5025024;28;20056;-38
2022/09/26 10:44:41;;;;;;;2.63;1.40;;;12.10;99.90;;;;;;5032972;28;20073;-38
2022/09/26 10:47:15;;;;;;;4.50;1.20;;;12.10;99.90;;;;;;5027879;28;20171;-40
2022/09/26 10:49:42;;;;;;;2.92;1.65;;;12.10;99.90;;;;;;5029543;28;20116;-39
2022/09/26 10:52:33;;;;;;;2.92;1.83;;;12.10;99.90;;;;;;5011686;28;20056;-36
2022/09/26 10:55:12;;;;;;;3.08;1.70;;;12.10;99.90;;;;;;5037394;28;20095;-38
2022/09/26 10:57:45;;;;;;;4.30;1.50;;;12.00;99.90;;;;;;5030582;28;20517;-39
2022/09/26 11:00:41;;;;;;;5.28;1.85;;;12.00;99.90;;;;;;5032800;28;20537;-39
2022/09/26 11:03:14;;;;;;;3.17;1.60;;;12.10;99.90;;;;;;5032028;28;20049;-40
2022/09/26 11:05:55;;;;;;;3.33;1.80;;;12.00;99.90;;;;;;5032851;28;20053;-38
2022/09/26 11:08:25;;;;;;;6.25;2.00;;;12.00;99.90;;;;;;5031318;28;20041;-39
2022/09/26 11:10:52;;;;;;;3.83;1.38;;;12.00;99.90;;;;;;5033232;28;20047;-38
2022/09/26 11:13:20;;;;;;;4.60;1.75;;;12.00;99.90;;;;;;5039436;28;20037;-38
2022/09/26 11:16:08;;;;;;;3.60;1.60;;;12.00;99.90;;;;;;5035756;28;20116;-38
2022/09/26 11:18:57;;;;;;;3.05;1.75;;;12.00;99.90;;;;;;5035159;28;20037;-38
2022/09/26 11:21:46;;;;;;;4.38;1.88;;;12.00;99.90;;;;;;5034477;28;20037;-38
2022/09/26 11:24:49;;;;;;;4.53;1.55;;;12.00;99.90;;;;;;5027570;28;20498;-40
2022/09/26 11:27:28;;;;;;;5.40;2.00;;;12.00;99.90;;;;;;5030366;28;20049;-38
2022/09/26 11:30:10;;;;;;;4.65;2.10;;;12.00;99.90;;;;;;5036438;28;20075;-38
2022/09/26 11:32:41;;;;;;;3.17;1.60;;;12.00;99.90;;;;;;5033260;28;20493;-39
2022/09/26 11:35:32;;;;;;;5.77;1.63;;;12.00;99.90;;;;;;5034274;28;20497;-39
2022/09/26 11:38:22;;;;;;;4.05;2.15;;;12.00;99.90;;;;;;5034980;28;20059;-38
2022/09/26 11:41:37;;;;;;;4.18;1.63;;;12.00;99.90;;;;;;5008105;28;20124;-38
2022/09/26 11:44:08;;;;;;;3.28;1.52;;;12.00;99.90;;;;;;5033909;28;20056;-40
2022/09/26 11:46:45;;;;;;;3.13;1.63;;;12.00;99.90;;;;;;5029597;28;20128;-38
2022/09/26 11:49:19;;;;;;;3.63;1.33;;;12.00;99.90;;;;;;5036743;28;20045;-39
2022/09/26 11:52:06;;;;;;;3.05;1.70;;;12.00;99.90;;;;;;5034288;28;20037;-39
2022/09/26 11:54:52;;;;;;;3.53;1.60;;;12.00;99.90;;;;;;5010903;28;20060;-38
2022/09/26 11:57:33;;;;;;;4.28;1.60;;;12.00;99.90;;;;;;5031497;28;20034;-39
2022/09/26 12:00:14;;;;;;;4.25;1.98;;;12.10;99.90;;;;;;5031800;28;20477;-38
2022/09/26 12:03:06;;;;;;;4.28;1.60;;;12.10;99.90;;;;;;5029000;28;21647;-38
2022/09/26 12:05:46;;;;;;;3.50;1.60;;;12.10;99.90;;;;;;5029883;28;20038;-39
2022/09/26 12:08:25;;;;;;;5.45;1.00;;;12.10;99.90;;;;;;5024282;28;20041;-38
2022/09/26 12:10:59;;;;;;;5.45;1.50;;;12.10;99.90;;;;;;5022487;28;20037;-39
2022/09/26 12:13:56;;;;;;;5.72;2.00;;;12.10;99.90;;;;;;5026923;28;20045;-38
2022/09/26 12:16:34;;;;;;;3.53;1.35;;;12.10;99.90;;;;;;5033458;28;20076;-40
2022/09/26 12:19:19;;;;;;;4.72;1.10;;;12.10;99.90;;;;;;5026568;28;20167;-39
2022/09/26 12:22:27;;;;;;;2.72;1.50;;;12.20;99.90;;;;;;5030798;28;20434;-39
2022/09/26 12:25:10;;;;;;;2.10;1.20;;;12.20;99.90;;;;;;5029275;28;20044;-38
2022/09/26 12:27:49;;;;;;;2.40;1.40;;;12.20;99.90;;;;;;5037964;28;20122;-40
2022/09/26 12:30:20;;;;;;;2.75;0.93;;;12.20;99.90;;;;;;5032321;28;20048;-38
2022/09/26 12:32:49;;;;;;;2.50;0.88;;;12.20;99.90;;;;;;5031443;28;20041;-38
2022/09/26 12:35:32;;;;;;;4.53;1.30;;;12.20;99.90;;;;;;5028642;28;20052;-39
2022/09/26 12:38:15;;;;;;;2.75;1.17;;;12.20;99.90;;;;;;5034426;28;20045;-38
2022/09/26 12:41:03;;;;;;;2.70;1.20;;;12.20;99.90;;;;;;5029479;28;20045;-39
2022/09/26 12:44:07;;;;;;;3.35;1.33;;;12.20;99.90;;;;;;5037276;28;20049;-39
2022/09/26 12:46:35;;;;;;;3.80;1.50;;;12.20;99.90;;;;;;5017719;28;20053;-39
2022/09/26 12:49:40;;;;;;;2.35;1.05;;;12.30;99.90;;;;;;5030113;28;20041;-39
2022/09/26 12:52:12;;;;;;;3.85;1.00;;;12.30;99.90;;;;;;5033999;28;20098;-40
2022/09/26 12:54:48;;;;;;;1.23;0.63;;;12.40;99.90;;;;;;5031984;28;20171;-38
2022/09/26 12:57:37;;;;;;;1.67;1.02;;;12.40;99.90;;;;;;5037401;28;20045;-38
2022/09/26 13:00:17;;;;;;;2.25;1.00;;;12.40;99.90;;;;;;5033563;28;20135;-38
2022/09/26 13:02:52;;;;;;;1.85;1.00;;;12.50;99.90;;;;;;5033615;28;20044;-38
2022/09/26 13:05:26;;;;;;;2.63;0.85;;;12.50;99.90;;;;;;5031347;28;20044;-39
2022/09/26 13:08:35;;;;;;;2.03;0.80;;;12.50;99.90;;;;;;5025360;28;20038;-37
2022/09/26 13:11:04;;;;;;;2.30;0.82;;;12.60;99.90;;;;;;5031471;28;20116;-39
2022/09/26 13:13:38;;;;;;;2.05;0.75;;;12.80;99.90;;;;;;5031360;28;20038;-38
2022/09/26 13:16:24;;;;;;;3.05;1.20;;;12.90;99.90;;;;;;5030229;28;20124;-38
2022/09/26 13:19:09;;;;;;;2.40;1.20;;;13.10;99.90;;;;;;5028732;28;20076;-38
2022/09/26 13:21:48;;;;;;;5.80;1.38;;;13.30;99.90;;;;;;5030549;28;20061;-37
2022/09/26 13:24:31;;;;;;;2.15;1.20;;;13.50;99.90;;;;;;5033203;28;20146;-40
2022/09/26 13:27:11;;;;;;;2.15;1.00;;;13.60;99.90;;;;;;5034553;28;20091;-41
2022/09/26 13:29:39;;;;;;;2.10;1.00;;;13.60;99.90;;;;;;5031192;28;20045;-40
2022/09/26 13:32:17;;;;;;;3.05;0.93;;;13.60;99.90;;;;;;5033863;28;20508;-37
2022/09/26 13:34:46;;;;;;;2.00;1.00;;;13.50;99.90;;;;;;5027532;28;20029;-41
2022/09/26 13:37:46;;;;;;;3.25;1.10;;;13.40;99.90;;;;;;5027257;28;20103;-39